Startpagina
METAR-TAF:

METAR-TAF

Vliegvelden :

Koeweit, Koeweit

breedte: 29-13N, lengte: 047-59E, hoogte: 55 m

Actueel weer

Dit bericht is 19 minuten geleden gemaakt, om 06:00 UTC
Weinig wind
Temperatuur 14°C
Vochtigheid 55%
Druk 1019 hPa
Zicht: 6000 m
Onbewolkt

METAR: OKBK 180600Z 00000KT 6000 SKC 14/05 Q1019 NOSIG

Tijdstip: 09:19 (06:19 UTC)

Verwachting

Dit bericht is 1 uur en het 34 minuten geleden gemaakt, om 04:45 UTC
Verwachting geldig van 18 om 06 UTC tot 19 om 12 UTC
Wind 3 kt uit variabele richting
Zicht: 7000 m
Onbewolkt
Wijzigt naar
van 18 om 11 UTC tot 18 om 13 UTC
Wind 10 kt uit het zuidoosten

TAF: OKBK 180445Z 1806/1912 VRB03KT 7000 SKC BECMG 1811/1813 13010KT

Waarnemingen en weersverwachtingen van meer dan 4000 vliegvelden (METAR en TAF).

De beschikbare stations zijn de gele en rode punten op de kaart.

Ga met uw muis naar het station om de naam te zien.

Klik dan om waarnemingen en weersverwachtingen te zien.

kaart wijzigen: klik op de groene knoppen met een zwart kruis om in te zoomen, op de groene knop met een streepje om uit te zoomen of op de groene pijlen voor aangrenzende kaarten.


METAR-TAF: